createdAt,value
2023-02-22T00:04:13.333Z,3.00
2023-02-22T00:14:20.903Z,2.90
2023-02-22T00:24:24.724Z,2.90
2023-02-22T00:34:29.864Z,3.00
2023-02-22T00:44:34.299Z,3.10
2023-02-22T00:54:39.711Z,3.10
2023-02-22T01:04:43.677Z,3.20
2023-02-22T01:14:50.164Z,3.20
2023-02-22T01:24:55.303Z,3.20
2023-02-22T01:35:00.655Z,3.20
2023-02-22T01:45:47.243Z,3.20
2023-02-22T01:55:54.817Z,3.30
2023-02-22T02:06:02.684Z,3.30
2023-02-22T02:16:08.550Z,3.20
2023-02-22T02:26:40.407Z,3.20
2023-02-22T02:36:56.005Z,3.10
2023-02-22T02:47:08.279Z,3.10
2023-02-22T02:57:13.627Z,3.10
2023-02-22T03:07:34.811Z,3.20
2023-02-22T03:17:52.017Z,3.10
2023-02-22T03:28:02.553Z,3.10
2023-02-22T03:38:13.275Z,3.10
2023-02-22T03:48:24.570Z,3.10
2023-02-22T03:58:33.539Z,3.10
2023-02-22T04:08:37.584Z,3.00
2023-02-22T04:18:42.946Z,3.00
2023-02-22T04:28:48.405Z,3.00
2023-02-22T04:38:56.568Z,3.10
2023-02-22T04:49:00.440Z,3.00
2023-02-22T04:59:09.428Z,3.00
2023-02-22T05:09:14.736Z,3.00
2023-02-22T05:19:19.837Z,3.00
2023-02-22T05:29:23.708Z,3.00
2023-02-22T05:39:28.916Z,3.00
2023-02-22T05:49:32.629Z,3.00
2023-02-22T05:59:37.879Z,3.00
2023-02-22T06:09:42.064Z,3.00
2023-02-22T06:19:47.272Z,3.10
2023-02-22T06:29:51.044Z,3.20
2023-02-22T06:39:56.236Z,3.20
2023-02-22T06:50:01.597Z,3.30
2023-02-22T07:00:08.228Z,3.50
2023-02-22T07:10:22.014Z,3.70
2023-02-22T07:20:29.334Z,3.90
2023-02-22T07:30:35.247Z,4.10
2023-02-22T07:40:41.023Z,4.30
2023-02-22T07:50:44.777Z,4.50
2023-02-22T08:00:49.999Z,4.90
2023-02-22T08:10:54.225Z,5.10
2023-02-22T08:20:59.429Z,5.50
2023-02-22T08:31:03.506Z,5.70
2023-02-22T08:41:08.597Z,5.90
2023-02-22T08:51:12.576Z,6.30
2023-02-22T09:01:27.939Z,6.70
2023-02-22T09:11:31.785Z,7.10
2023-02-22T09:21:36.932Z,7.60
2023-02-22T09:31:42.964Z,8.70
2023-02-22T09:41:57.676Z,10.50
2023-02-22T09:52:07.491Z,14.90
2023-02-22T10:02:28.487Z,16.90
2023-02-22T10:12:41.072Z,15.80
2023-02-22T10:22:58.670Z,18.50
2023-02-22T10:33:11.076Z,18.90
2023-02-22T10:43:16.435Z,16.70
2023-02-22T10:53:20.307Z,16.40
2023-02-22T11:03:26.439Z,14.10
2023-02-22T11:13:33.584Z,12.30
2023-02-22T11:23:42.576Z,12.60
2023-02-22T11:44:23.773Z,11.80
2023-02-22T11:54:44.584Z,11.50
2023-02-22T12:05:18.592Z,11.70
2023-02-22T12:15:30.952Z,22.80
2023-02-22T12:25:40.985Z,28.20
2023-02-22T12:35:51.768Z,25.60
2023-02-22T12:46:04.468Z,28.10
2023-02-22T12:56:22.613Z,29.30
2023-02-22T13:06:43.951Z,25.10
2023-02-22T13:16:53.751Z,25.50
2023-02-22T13:27:03.296Z,21.80
2023-02-22T13:37:24.258Z,17.00
2023-02-22T13:48:25.755Z,14.40
2023-02-22T13:58:31.064Z,13.10
2023-02-22T14:08:45.660Z,12.00
2023-02-22T14:19:02.642Z,10.60
2023-02-22T14:29:19.315Z,9.90
2023-02-22T14:39:32.798Z,9.40
2023-02-22T14:49:45.379Z,8.70
2023-02-22T15:00:21.132Z,8.30
2023-02-22T15:10:30.424Z,8.00
2023-02-22T15:20:38.526Z,7.50
2023-02-22T15:30:43.328Z,7.20
2023-02-22T15:40:56.884Z,6.90
2023-02-22T15:51:11.377Z,6.40
2023-02-22T16:01:19.955Z,6.20
2023-02-22T16:11:30.201Z,5.90
2023-02-22T16:21:53.571Z,5.70
2023-02-22T16:31:57.731Z,5.30
2023-02-22T16:42:05.480Z,5.00
2023-02-22T16:52:09.688Z,4.80
2023-02-22T17:02:16.636Z,4.60
2023-02-22T17:12:20.640Z,4.20
2023-02-22T17:22:25.580Z,4.00
2023-02-22T17:32:29.254Z,3.60
2023-02-22T17:42:34.509Z,3.00
2023-02-22T17:52:38.402Z,2.90
2023-02-22T18:02:45.474Z,2.70
2023-02-22T18:12:50.350Z,2.50
2023-02-22T18:22:59.427Z,2.20
2023-02-22T18:33:03.712Z,2.10
2023-02-22T18:43:09.014Z,1.80
2023-02-22T18:53:12.786Z,1.60
2023-02-22T19:03:17.835Z,1.20
2023-02-22T19:13:21.968Z,1.00
2023-02-22T19:23:28.409Z,0.70
2023-02-22T19:33:34.772Z,0.40
2023-02-22T19:43:40.038Z,0.10
2023-02-22T19:53:46.715Z,-0.20
2023-02-22T20:03:54.499Z,-0.50
2023-02-22T20:13:58.431Z,-0.80
2023-02-22T20:24:07.765Z,-1.00
2023-02-22T20:34:12.515Z,-1.20
2023-02-22T20:44:20.288Z,-1.30
2023-02-22T20:54:24.014Z,-1.40
2023-02-22T21:04:33.102Z,-1.60
2023-02-22T21:14:37.624Z,-1.10
2023-02-22T21:24:42.708Z,-0.70
2023-02-22T21:34:46.477Z,-0.60
2023-02-22T21:44:56.103Z,-0.60
2023-02-22T21:54:59.820Z,-0.70
2023-02-22T22:05:05.400Z,-0.80
2023-02-22T22:15:10.564Z,-0.90
2023-02-22T22:25:17.350Z,-1.00
2023-02-22T22:35:22.905Z,-1.10
2023-02-22T22:45:28.111Z,-1.20
2023-02-22T22:55:32.002Z,-1.20
2023-02-22T23:05:43.438Z,-1.30
2023-02-22T23:15:48.372Z,-1.40
2023-02-22T23:26:04.785Z,-1.50
2023-02-22T23:36:11.306Z,-1.50
2023-02-22T23:46:19.681Z,-1.60
2023-02-22T23:56:26.743Z,-1.70
